Time;durP1;ratioP1;P1;durP2;ratioP2;P2;SDS_P1;SDS_P2;PMS_P1;PMS_P2;Temp;Humidity;BMP_temperature;BMP_pressure;BME280_temperature;BME280_humidity;BME280_pressure;Samples;Min_cycle;Max_cycle;Signal;HPM_P1;HPM_P2
2023/06/01 00:01:32;;;;;;;1.93;1.50;;;;;;;18.44;56.17;96749.28;10451408;28;20047;-32
2023/06/01 00:06:34;;;;;;;1.97;1.63;;;;;;;18.37;56.09;96737.47;10443382;28;20060;-32
2023/06/01 00:11:34;;;;;;;1.98;1.60;;;;;;;18.41;56.29;96746.78;10448385;28;20116;-33
2023/06/01 00:16:35;;;;;;;2.60;1.98;;;;;;;18.39;56.31;96733.22;10450875;28;20029;-32
2023/06/01 00:21:36;;;;;;;2.38;1.90;;;;;;;18.44;56.35;96734.94;10449539;28;20063;-33
2023/06/01 00:26:36;;;;;;;2.03;1.83;;;;;;;18.74;56.22;96739.16;10447588;28;20431;-33
2023/06/01 00:31:37;;;;;;;1.97;1.77;;;;;;;18.80;55.53;96727.31;10448935;28;20025;-32
2023/06/01 00:36:37;;;;;;;2.43;2.10;;;;;;;18.67;56.28;96733.22;10442907;28;20041;-32
2023/06/01 00:41:38;;;;;;;2.17;1.77;;;;;;;18.56;56.01;96723.94;10447628;28;20043;-32
2023/06/01 00:46:38;;;;;;;2.27;1.93;;;;;;;18.45;55.96;96718.03;10449012;28;20037;-33
2023/06/01 00:51:40;;;;;;;2.58;2.00;;;;;;;18.40;56.09;96719.75;10470570;28;20263;-32
2023/06/01 00:56:41;;;;;;;2.95;2.00;;;;;;;18.42;56.12;96725.66;10493818;28;20024;-32
2023/06/01 01:01:43;;;;;;;1.73;1.63;;;;;;;18.39;56.24;96720.56;10473751;28;20036;-32
2023/06/01 01:07:11;;;;;;;2.70;1.90;;;;;;;18.37;56.00;96709.56;10472721;28;20322;-32
2023/06/01 01:12:21;;;;;;;2.05;1.85;;;;;;;18.38;56.15;96713.78;10484711;28;20491;-32
2023/06/01 01:17:33;;;;;;;2.35;2.10;;;;;;;18.36;55.85;96716.34;10471967;28;20032;-32
2023/06/01 01:22:39;;;;;;;2.42;2.15;;;;;;;18.48;56.09;96720.56;10498810;28;20039;-33
2023/06/01 01:28:08;;;;;;;2.50;2.00;;;;;;;18.75;55.69;96723.09;10508448;28;20028;-32
2023/06/01 01:33:10;;;;;;;2.38;1.98;;;;;;;18.80;55.46;96718.84;10501553;28;20031;-32
2023/06/01 01:38:11;;;;;;;2.28;1.88;;;;;;;18.62;55.98;96709.59;10479466;28;20039;-33
2023/06/01 01:43:12;;;;;;;3.37;2.17;;;;;;;18.55;55.87;96717.16;10473909;28;20029;-33
2023/06/01 01:48:42;;;;;;;2.58;2.10;;;;;;;18.48;55.62;96721.41;10497597;28;20036;-32
2023/06/01 01:53:44;;;;;;;2.63;2.10;;;;;;;18.43;56.02;96723.09;10504452;28;20037;-32
2023/06/01 01:58:47;;;;;;;3.65;2.10;;;;;;;18.37;55.91;96707.91;10479071;28;20498;-32
2023/06/01 02:03:57;;;;;;;2.40;2.00;;;;;;;18.35;55.81;96713.81;10471314;28;20041;-32
2023/06/01 02:08:58;;;;;;;2.38;2.10;;;;;;;18.38;55.74;96717.19;10472353;28;20036;-31
2023/06/01 02:13:58;;;;;;;2.75;2.13;;;;;;;18.39;55.91;96720.56;10486611;28;20036;-32
2023/06/01 02:18:58;;;;;;;3.07;1.90;;;;;;;18.37;55.90;96707.03;10495277;28;20060;-33
2023/06/01 02:24:04;;;;;;;3.25;2.30;;;;;;;18.48;56.07;96702.81;10489139;28;20058;-33
2023/06/01 02:29:05;;;;;;;2.80;2.28;;;;;;;18.69;55.35;96701.13;10493627;28;20483;-32
2023/06/01 02:34:05;;;;;;;4.05;2.70;;;;;;;18.73;55.37;96695.19;10496127;28;20048;-32
2023/06/01 02:39:06;;;;;;;2.97;2.63;;;;;;;18.60;55.85;96711.25;10454413;28;20043;-32
2023/06/01 02:44:08;;;;;;;3.40;2.40;;;;;;;18.51;55.50;96710.44;10476285;28;20037;-33
2023/06/01 02:49:08;;;;;;;2.85;2.40;;;;;;;18.46;55.58;96705.38;10503894;28;20028;-32
2023/06/01 02:54:08;;;;;;;4.07;2.53;;;;;;;18.41;55.88;96701.16;10472054;28;20546;-33
2023/06/01 02:59:09;;;;;;;3.83;2.70;;;;;;;18.39;55.50;96701.13;10485010;28;20456;-32
2023/06/01 03:04:15;;;;;;;2.80;2.35;;;;;;;18.38;55.66;96698.59;10471151;28;20283;-32
2023/06/01 03:09:17;;;;;;;2.78;2.17;;;;;;;18.34;55.89;96704.50;10473419;28;20074;-33
2023/06/01 03:14:25;;;;;;;3.90;2.58;;;;;;;18.37;55.82;96701.97;10484967;28;20028;-32
2023/06/01 03:19:25;;;;;;;4.83;2.57;;;;;;;18.36;55.65;96700.28;10483256;28;20036;-32
2023/06/01 03:24:32;;;;;;;4.72;2.90;;;;;;;18.48;55.85;96701.13;10476563;28;20047;-33
2023/06/01 03:29:36;;;;;;;3.17;2.55;;;;;;;18.72;55.44;96701.13;10473224;28;20370;-32
2023/06/01 03:34:36;;;;;;;3.75;2.78;;;;;;;18.78;54.82;96706.19;10492298;28;20032;-32
2023/06/01 03:39:39;;;;;;;3.15;2.85;;;;;;;18.60;55.64;96712.97;10492199;28;20521;-33
2023/06/01 03:44:41;;;;;;;5.50;2.40;;;;;;;18.47;55.20;96714.66;10473668;28;20138;-32
2023/06/01 03:49:42;;;;;;;2.70;2.47;;;;;;;18.46;55.47;96717.19;10525502;28;20119;-33
2023/06/01 03:54:45;;;;;;;3.67;2.97;;;;;;;18.41;55.51;96713.81;10472946;28;20028;-33
2023/06/01 04:00:17;;;;;;;3.50;2.20;;;;;;;18.39;55.53;96711.28;10467588;28;20036;-33
2023/06/01 04:05:25;;;;;;;3.47;2.70;;;;;;;18.40;55.40;96724.81;10497091;28;20039;-32
2023/06/01 04:10:26;;;;;;;2.90;2.63;;;;;;;18.38;55.42;96716.31;10474858;28;20024;-32
2023/06/01 04:15:26;;;;;;;3.47;2.67;;;;;;;18.37;55.69;96722.25;10473081;28;20036;-32
2023/06/01 04:20:27;;;;;;;3.42;2.55;;;;;;;18.34;55.40;96717.19;10487626;28;20498;-32
2023/06/01 04:25:28;;;;;;;2.95;2.40;;;;;;;18.44;55.52;96714.66;10469972;28;20056;-32
2023/06/01 04:30:28;;;;;;;3.42;2.42;;;;;;;18.68;55.45;96718.88;10480587;28;20568;-33
2023/06/01 04:35:29;;;;;;;2.72;2.50;;;;;;;18.78;54.91;96725.63;10473483;28;20410;-32
2023/06/01 04:40:30;;;;;;;3.03;2.70;;;;;;;18.60;55.79;96726.47;10464906;28;20068;-32
2023/06/01 04:45:30;;;;;;;3.63;2.80;;;;;;;18.50;55.36;96724.78;10480939;28;20036;-32
2023/06/01 04:50:31;;;;;;;4.03;2.60;;;;;;;18.46;55.15;96727.31;10478467;28;20036;-34
2023/06/01 04:55:33;;;;;;;2.83;2.47;;;;;;;18.41;55.20;96729.03;10471580;28;20043;-32
2023/06/01 05:00:33;;;;;;;3.47;2.53;;;;;;;18.39;55.31;96731.56;10472947;28;20043;-33
2023/06/01 05:05:34;;;;;;;3.00;2.37;;;;;;;18.38;55.47;96729.88;10468291;28;20811;-32
2023/06/01 05:10:34;;;;;;;3.00;2.50;;;;;;;18.39;55.51;96741.69;10468081;28;20325;-33
2023/06/01 05:15:34;;;;;;;3.53;2.80;;;;;;;18.39;55.42;96735.75;10474464;28;20036;-32
2023/06/01 05:20:35;;;;;;;4.47;3.10;;;;;;;18.36;55.55;96738.31;10482607;28;20291;-39
2023/06/01 05:25:36;;;;;;;3.15;2.58;;;;;;;18.38;55.39;96736.59;10472668;28;20028;-33
2023/06/01 05:30:36;;;;;;;2.63;2.42;;;;;;;18.69;55.46;96745.91;10471533;28;20025;-33
2023/06/01 05:35:37;;;;;;;3.28;2.35;;;;;;;18.77;54.73;96734.06;10469815;28;20090;-33
2023/06/01 05:40:40;;;;;;;3.08;2.63;;;;;;;18.59;55.26;96737.47;10472035;28;20047;-32
2023/06/01 05:45:40;;;;;;;4.30;2.88;;;;;;;18.55;55.37;96737.47;10496172;28;20043;-33
2023/06/01 05:50:42;;;;;;;4.43;3.15;;;;;;;18.49;55.13;96742.56;10470975;28;20032;-33
2023/06/01 05:55:42;;;;;;;4.22;3.60;;;;;;;18.43;55.10;96733.22;10474929;28;20440;-33
2023/06/01 06:00:43;;;;;;;3.05;2.35;;;;;;;18.37;55.17;96734.91;10477239;28;20082;-32
2023/06/01 06:05:44;;;;;;;3.57;2.80;;;;;;;18.39;55.43;96739.16;10495214;28;20094;-32
2023/06/01 06:10:45;;;;;;;3.45;3.08;;;;;;;18.38;55.50;96744.22;10490634;28;20299;-32
2023/06/01 06:15:45;;;;;;;3.45;2.80;;;;;;;18.38;55.52;96744.22;10495261;28;20024;-32
2023/06/01 06:20:46;;;;;;;3.97;2.90;;;;;;;18.38;55.32;96739.13;10476744;28;20036;-32
2023/06/01 06:25:48;;;;;;;3.58;2.67;;;;;;;18.38;55.34;96734.94;10496775;28;20032;-33
2023/06/01 06:30:48;;;;;;;3.47;2.92;;;;;;;18.67;55.83;96733.22;10492680;28;20032;-33
2023/06/01 06:35:49;;;;;;;3.23;2.60;;;;;;;18.83;54.84;96736.63;10495887;28;20040;-33
2023/06/01 06:40:50;;;;;;;3.77;2.47;;;;;;;18.69;55.47;96738.31;10494477;28;20032;-33
2023/06/01 06:45:50;;;;;;;3.53;2.67;;;;;;;18.56;55.45;96745.06;10489830;28;20095;-32
2023/06/01 06:50:51;;;;;;;3.20;2.40;;;;;;;18.50;55.37;96739.16;10502369;28;20449;-33
2023/06/01 06:55:51;;;;;;;3.00;2.40;;;;;;;18.46;55.44;96740.00;10491451;28;20052;-32
2023/06/01 07:00:52;;;;;;;3.40;2.70;;;;;;;18.40;55.36;96732.41;10494997;28;20032;-32
2023/06/01 07:05:52;;;;;;;3.20;2.80;;;;;;;18.46;55.52;96742.53;10492712;28;20115;-32
2023/06/01 07:10:53;;;;;;;3.90;2.70;;;;;;;18.39;55.47;96730.69;10494545;28;20025;-32
2023/06/01 07:15:54;;;;;;;3.60;2.53;;;;;;;18.41;55.60;96741.69;10493066;28;20028;-32
2023/06/01 07:20:55;;;;;;;2.43;1.90;;;;;;;18.45;55.54;96735.78;10492787;28;20043;-32
2023/06/01 07:25:55;;;;;;;3.90;2.75;;;;;;;18.42;55.49;96740.84;10493870;28;20032;-33
2023/06/01 07:30:56;;;;;;;2.90;2.33;;;;;;;18.68;56.22;96739.16;10486014;28;20025;-33
2023/06/01 07:35:57;;;;;;;2.80;2.13;;;;;;;18.86;55.85;96744.22;10502041;28;20032;-33
2023/06/01 07:40:59;;;;;;;2.92;2.50;;;;;;;18.80;55.93;96736.59;10488119;28;20387;-34
2023/06/01 07:45:59;;;;;;;3.15;2.17;;;;;;;18.70;55.87;96738.31;10492112;28;20036;-33
2023/06/01 07:50:59;;;;;;;2.25;2.05;;;;;;;18.64;56.33;96734.91;10493092;28;20557;-33
2023/06/01 07:56:00;;;;;;;2.77;2.30;;;;;;;18.64;56.02;96742.53;10491586;28;20024;-33
2023/06/01 08:01:01;;;;;;;2.22;1.73;;;;;;;18.64;55.86;96732.38;10500614;28;20038;-32
2023/06/01 08:06:04;;;;;;;2.50;2.25;;;;;;;18.64;56.07;96727.31;10486701;28;20040;-32
2023/06/01 08:11:05;;;;;;;2.25;1.95;;;;;;;18.60;56.03;96730.72;10492225;28;20044;-33
2023/06/01 08:16:05;;;;;;;2.07;1.87;;;;;;;18.62;55.86;96729.00;10487344;28;20121;-32
2023/06/01 08:21:08;;;;;;;2.30;2.10;;;;;;;18.63;55.98;96729.00;10490886;28;20024;-32
2023/06/01 08:26:09;;;;;;;2.80;2.10;;;;;;;18.63;56.34;96729.00;10500075;28;20051;-33
2023/06/01 08:31:10;;;;;;;2.40;2.20;;;;;;;18.80;56.70;96721.38;10490459;28;20044;-32
2023/06/01 08:36:10;;;;;;;2.25;2.05;;;;;;;18.94;56.75;96723.06;10491467;28;20111;-33
2023/06/01 08:41:39;;;;;;;2.73;2.33;;;;;;;18.84;56.69;96710.41;10494231;28;20038;-33
2023/06/01 08:46:41;;;;;;;2.63;2.03;;;;;;;18.75;56.86;96718.03;10487790;28;20071;-33
2023/06/01 08:51:42;;;;;;;2.70;2.20;;;;;;;18.71;56.79;96717.19;10487524;28;20375;-32
2023/06/01 08:56:43;;;;;;;2.03;1.83;;;;;;;18.69;56.73;96721.41;10489822;28;20024;-32
2023/06/01 09:01:45;;;;;;;2.13;1.80;;;;;;;18.68;56.61;96724.78;10490776;28;20028;-33
2023/06/01 09:06:45;;;;;;;2.13;1.80;;;;;;;18.67;56.57;96714.66;10485820;28;20482;-32
2023/06/01 09:11:47;;;;;;;1.73;1.63;;;;;;;18.67;56.70;96722.25;10490810;28;20032;-32
2023/06/01 09:16:47;;;;;;;2.97;1.80;;;;;;;18.67;56.65;96727.31;10497625;28;20029;-33
2023/06/01 09:21:56;;;;;;;2.28;1.80;;;;;;;18.67;56.72;96719.72;10495614;28;20064;-32
2023/06/01 09:27:01;;;;;;;1.98;1.80;;;;;;;18.68;56.78;96718.88;10488721;28;20482;-33
2023/06/01 09:32:02;;;;;;;2.20;2.00;;;;;;;18.81;57.46;96705.31;10497392;28;20483;-33
2023/06/01 09:37:06;;;;;;;2.33;1.40;;;;;;;19.02;57.13;96717.97;10506856;28;20024;-32
2023/06/01 09:42:07;;;;;;;1.65;1.55;;;;;;;18.89;57.36;96708.69;10496734;28;20040;-33
2023/06/01 09:47:12;;;;;;;1.60;1.50;;;;;;;18.79;57.28;96707.88;10498000;28;20040;-33
2023/06/01 09:52:16;;;;;;;2.17;1.70;;;;;;;18.75;57.17;96705.34;10489938;28;20028;-33
2023/06/01 09:57:22;;;;;;;1.88;1.73;;;;;;;18.73;57.06;96701.94;10495063;28;20040;-33
2023/06/01 10:02:24;;;;;;;1.83;1.63;;;;;;;18.71;56.98;96691.81;10497651;28;20036;-32
2023/06/01 10:07:30;;;;;;;1.25;1.15;;;;;;;18.71;57.18;96690.97;10501355;28;20098;-32
2023/06/01 10:12:31;;;;;;;1.60;1.40;;;;;;;18.71;57.02;96696.03;10496979;28;20032;-32
2023/06/01 10:17:34;;;;;;;2.22;1.58;;;;;;;18.70;57.18;96681.66;10492622;28;20037;-32
2023/06/01 10:22:35;;;;;;;1.80;1.35;;;;;;;18.72;57.09;96685.03;10488249;28;20486;-35
2023/06/01 10:27:40;;;;;;;1.88;1.67;;;;;;;18.71;57.43;96679.13;10496508;28;20047;-32
2023/06/01 10:32:43;;;;;;;2.13;1.80;;;;;;;18.87;57.80;96680.81;10492904;28;20029;-32
2023/06/01 10:38:06;;;;;;;2.67;1.90;;;;;;;19.02;56.97;96680.75;10495977;28;20032;-33
2023/06/01 10:43:08;;;;;;;2.15;2.00;;;;;;;18.91;57.68;96681.63;10489566;28;20247;-33
2023/06/01 10:48:12;;;;;;;1.70;1.60;;;;;;;18.78;57.50;96669.81;10487116;28;20409;-32
2023/06/01 10:53:30;;;;;;;1.90;1.63;;;;;;;18.78;57.83;96667.28;10504715;28;20017;-33
2023/06/01 10:58:30;;;;;;;1.63;1.35;;;;;;;18.77;57.58;96668.13;10481054;28;20032;-33
2023/06/01 11:03:58;;;;;;;1.73;1.50;;;;;;;18.75;57.54;96664.75;10495414;28;20106;-32
2023/06/01 11:09:00;;;;;;;1.80;1.40;;;;;;;18.75;57.67;96659.69;10489018;28;20640;-32
2023/06/01 11:14:11;;;;;;;1.50;1.40;;;;;;;18.72;57.40;96647.00;10486713;28;20098;-33
2023/06/01 11:19:18;;;;;;;1.88;1.67;;;;;;;18.75;57.55;96649.53;10494055;28;20116;-32
2023/06/01 11:24:18;;;;;;;2.30;1.67;;;;;;;18.72;57.62;96645.31;10492161;28;20043;-32
2023/06/01 11:29:21;;;;;;;1.33;1.23;;;;;;;18.77;60.80;96637.69;10493142;28;20384;-32
2023/06/01 11:34:40;;;;;;;1.30;1.20;;;;;;;18.99;58.27;96644.41;10486565;28;20793;-33
2023/06/01 11:39:41;;;;;;;1.65;1.50;;;;;;;19.02;57.74;96630.00;10486545;28;20506;-33
2023/06/01 11:44:44;;;;;;;1.52;1.33;;;;;;;18.89;58.03;96630.03;10493674;28;20028;-32
2023/06/01 11:49:48;;;;;;;1.15;1.05;;;;;;;18.81;57.95;96619.06;10484974;28;20016;-32
2023/06/01 11:54:51;;;;;;;2.08;1.40;;;;;;;18.77;58.39;96613.16;10492968;28;20024;-32
2023/06/01 11:59:51;;;;;;;2.03;1.40;;;;;;;18.79;57.95;96620.78;10490630;28;20063;-32
2023/06/01 12:05:06;;;;;;;1.63;1.47;;;;;;;18.76;57.73;96616.56;10484413;28;20033;-33
2023/06/01 12:10:07;;;;;;;1.38;1.20;;;;;;;18.78;57.97;96607.28;10492346;28;20035;-33
2023/06/01 12:15:11;;;;;;;1.48;1.38;;;;;;;18.78;58.04;96601.34;10490607;28;20033;-32
2023/06/01 12:20:12;;;;;;;1.58;1.48;;;;;;;18.78;58.03;96598.81;10492239;28;20033;-32
2023/06/01 12:25:12;;;;;;;1.55;1.45;;;;;;;18.78;57.97;96598.81;10485552;28;20426;-33
2023/06/01 12:30:22;;;;;;;1.33;1.23;;;;;;;18.88;59.62;96590.31;10491723;28;20120;-31
2023/06/01 12:35:23;;;;;;;1.63;1.52;;;;;;;19.03;58.20;96588.56;10476347;28;20473;-33
2023/06/01 12:40:23;;;;;;;1.30;1.20;;;;;;;19.02;57.81;96581.78;10491221;28;20059;-33
2023/06/01 12:45:24;;;;;;;1.10;1.00;;;;;;;18.90;58.29;96583.53;10490247;28;20056;-32
2023/06/01 12:50:24;;;;;;;1.42;1.30;;;;;;;18.85;58.38;96581.00;10489951;28;20051;-32
2023/06/01 12:55:25;;;;;;;1.70;1.30;;;;;;;18.82;58.43;96575.13;10492009;28;20058;-32
2023/06/01 13:00:25;;;;;;;1.87;1.67;;;;;;;18.80;58.00;96571.72;10497232;28;20134;-34
2023/06/01 13:05:26;;;;;;;1.60;1.50;;;;;;;18.75;58.29;96565.84;10490359;28;20029;-32
2023/06/01 13:10:26;;;;;;;1.23;1.13;;;;;;;18.80;57.89;96564.13;10471699;28;20027;-32
2023/06/01 13:15:27;;;;;;;2.10;1.60;;;;;;;18.77;58.03;96559.06;10490585;28;20044;-32
2023/06/01 13:20:27;;;;;;;1.70;1.30;;;;;;;18.79;58.02;96565.84;10496485;28;20073;-32
2023/06/01 13:25:27;;;;;;;1.30;1.20;;;;;;;18.79;58.07;96559.91;10489412;28;20033;-33
2023/06/01 13:30:28;;;;;;;1.60;1.40;;;;;;;18.89;59.35;96551.41;10490264;28;20039;-32
2023/06/01 13:35:29;;;;;;;1.10;1.00;;;;;;;19.06;58.14;96542.03;10502077;28;20028;-32
2023/06/01 13:40:30;;;;;;;1.20;1.10;;;;;;;19.06;58.17;96547.09;10490427;28;20479;-33
2023/06/01 13:45:31;;;;;;;1.10;1.00;;;;;;;18.91;58.56;96529.44;10497219;28;20047;-33
2023/06/01 13:50:31;;;;;;;1.23;1.08;;;;;;;18.86;58.70;96526.06;10488991;28;20103;-33
2023/06/01 13:55:32;;;;;;;2.60;1.20;;;;;;;18.84;58.58;96521.00;10489760;28;20119;-32
2023/06/01 14:00:32;;;;;;;1.45;1.30;;;;;;;18.79;58.74;96516.78;10482236;28;20040;-32
2023/06/01 14:05:33;;;;;;;0.93;0.93;;;;;;;18.78;58.26;96507.50;10497950;28;20043;-33
2023/06/01 14:10:34;;;;;;;1.30;1.20;;;;;;;18.78;58.45;96510.03;10483513;28;20043;-32
2023/06/01 14:15:34;;;;;;;1.20;0.98;;;;;;;18.81;58.50;96507.47;10491292;28;20287;-32
2023/06/01 14:20:37;;;;;;;1.50;1.30;;;;;;;18.82;58.30;96504.13;10496660;28;20041;-32
2023/06/01 14:25:37;;;;;;;1.50;1.38;;;;;;;18.80;58.39;96501.56;10488123;28;20048;-32
2023/06/01 14:30:39;;;;;;;1.13;1.00;;;;;;;18.94;58.86;96493.88;10494540;28;20395;-32
2023/06/01 14:35:42;;;;;;;1.25;1.13;;;;;;;19.09;59.00;96496.34;10496179;28;20429;-32
2023/06/01 14:40:42;;;;;;;0.90;0.90;;;;;;;19.04;58.61;96495.53;10488519;28;20080;-33
2023/06/01 14:45:42;;;;;;;1.10;1.00;;;;;;;18.94;58.75;96493.88;10496288;28;20059;-33
2023/06/01 14:50:43;;;;;;;1.10;1.00;;;;;;;18.86;58.66;96480.41;10471318;28;20024;-32
2023/06/01 14:55:43;;;;;;;1.77;1.13;;;;;;;18.85;58.64;96474.47;10494695;28;20036;-32
2023/06/01 15:00:44;;;;;;;1.30;1.20;;;;;;;18.83;58.71;96480.44;10503780;28;20036;-33
2023/06/01 15:05:44;;;;;;;1.10;1.00;;;;;;;18.82;58.48;96474.50;10493732;28;20477;-33
2023/06/01 15:10:44;;;;;;;1.30;1.20;;;;;;;18.83;58.72;96470.28;10493796;28;20506;-32
2023/06/01 15:15:45;;;;;;;1.40;1.30;;;;;;;18.81;58.48;96470.28;10489213;28;20041;-32
2023/06/01 15:20:45;;;;;;;1.30;1.20;;;;;;;18.82;58.39;96466.06;10490423;28;20299;-32
2023/06/01 15:25:46;;;;;;;1.60;1.40;;;;;;;18.83;58.26;96465.22;10493939;28;20135;-32
2023/06/01 15:30:46;;;;;;;1.33;1.23;;;;;;;18.96;58.99;96466.81;10487758;28;20494;-33
2023/06/01 15:35:47;;;;;;;1.40;1.27;;;;;;;19.12;58.68;96465.88;10492881;28;20050;-33
2023/06/01 15:40:47;;;;;;;1.17;0.98;;;;;;;19.03;58.74;96464.25;10493562;28;20047;-33
2023/06/01 15:45:48;;;;;;;1.40;1.25;;;;;;;18.93;58.94;96446.56;10489040;28;20032;-32
2023/06/01 15:50:48;;;;;;;1.40;1.30;;;;;;;18.87;58.92;96441.50;10496125;28;20051;-33
2023/06/01 15:55:49;;;;;;;1.70;1.30;;;;;;;18.87;58.69;96444.03;10489940;28;20066;-32
2023/06/01 16:00:49;;;;;;;1.30;1.05;;;;;;;18.79;58.50;96433.94;10492595;28;20336;-33
2023/06/01 16:05:50;;;;;;;1.13;1.02;;;;;;;18.86;58.81;96442.34;10488818;28;20029;-32
2023/06/01 16:10:51;;;;;;;1.40;1.17;;;;;;;18.84;58.69;96439.00;10490016;28;20482;-33
2023/06/01 16:15:51;;;;;;;1.60;1.40;;;;;;;18.81;58.39;96433.91;10509320;28;20033;-33
2023/06/01 16:20:51;;;;;;;1.90;1.10;;;;;;;18.83;58.32;96429.72;10484142;28;20166;-32
2023/06/01 16:25:52;;;;;;;1.40;1.30;;;;;;;18.81;58.50;96421.25;10491982;28;20029;-32
2023/06/01 16:30:52;;;;;;;1.07;0.97;;;;;;;19.00;59.00;96418.59;10489073;28;20028;-32
2023/06/01 16:35:52;;;;;;;1.17;1.05;;;;;;;19.15;58.51;96426.09;10491433;28;20297;-33
2023/06/01 16:40:53;;;;;;;0.90;0.85;;;;;;;19.03;58.97;96422.78;10497634;28;20036;-34
2023/06/01 16:45:53;;;;;;;1.40;1.30;;;;;;;18.95;58.92;96414.41;10489261;28;20040;-33
2023/06/01 16:50:55;;;;;;;1.37;1.27;;;;;;;18.90;58.93;96422.03;10486374;28;20035;-32
2023/06/01 16:55:56;;;;;;;1.02;0.93;;;;;;;18.85;59.13;96412.78;10496102;28;20075;-32
2023/06/01 17:00:56;;;;;;;1.20;1.03;;;;;;;18.87;58.63;96418.69;10490916;28;20141;-32
2023/06/01 17:05:57;;;;;;;1.23;1.10;;;;;;;18.85;58.72;96421.22;10465870;28;20477;-32
2023/06/01 17:10:57;;;;;;;1.75;1.55;;;;;;;18.82;58.54;96410.28;10490660;28;20052;-32
2023/06/01 17:15:57;;;;;;;0.97;0.80;;;;;;;18.85;58.50;96415.31;10483137;28;20143;-33
2023/06/01 17:20:58;;;;;;;1.13;1.02;;;;;;;18.83;58.39;96419.56;10490613;28;20458;-32
2023/06/01 17:25:58;;;;;;;1.20;1.10;;;;;;;18.80;59.12;96414.47;10491703;28;20035;-34
2023/06/01 17:30:58;;;;;;;1.35;1.00;;;;;;;19.04;59.44;96419.41;10475511;28;20035;-33
2023/06/01 17:35:59;;;;;;;1.40;1.30;;;;;;;19.14;58.34;96421.00;10490198;28;20482;-33
2023/06/01 17:40:59;;;;;;;1.23;1.10;;;;;;;18.99;59.10;96421.97;10485952;28;20033;-32
2023/06/01 17:46:00;;;;;;;1.48;1.13;;;;;;;18.92;59.16;96415.25;10490079;28;20029;-32
2023/06/01 17:51:00;;;;;;;1.13;1.03;;;;;;;18.89;58.88;96415.28;10494990;28;20029;-33
2023/06/01 17:56:01;;;;;;;1.10;1.00;;;;;;;18.87;58.71;96411.91;10499310;28;20664;-32
2023/06/01 18:01:01;;;;;;;1.65;1.35;;;;;;;18.83;58.71;96409.41;10490059;28;20032;-32
2023/06/01 18:06:02;;;;;;;1.37;1.20;;;;;;;18.85;58.48;96423.75;10507442;28;20531;-33
2023/06/01 18:11:06;;;;;;;1.05;0.95;;;;;;;18.85;58.50;96428.00;10492061;28;20399;-32
2023/06/01 18:16:06;;;;;;;1.10;1.00;;;;;;;18.82;58.33;96413.63;10495325;28;20048;-32
2023/06/01 18:21:07;;;;;;;1.00;0.90;;;;;;;18.85;58.20;96430.53;10493872;28;20032;-34
2023/06/01 18:26:09;;;;;;;1.00;0.90;;;;;;;18.94;59.72;96427.94;10504883;28;20071;-33
2023/06/01 18:31:10;;;;;;;1.23;1.13;;;;;;;19.12;58.89;96427.81;10497803;28;20036;-32
2023/06/01 18:36:11;;;;;;;1.63;1.00;;;;;;;19.14;58.24;96426.09;10491200;28;20402;-32
2023/06/01 18:41:11;;;;;;;1.15;0.90;;;;;;;19.01;59.01;96429.59;10496163;28;20039;-32
2023/06/01 18:46:12;;;;;;;0.90;0.90;;;;;;;18.93;58.95;96436.41;10494177;28;20032;-32
2023/06/01 18:51:17;;;;;;;0.80;0.80;;;;;;;18.89;58.79;96439.78;10495515;28;20040;-36
2023/06/01 18:56:18;;;;;;;1.23;1.13;;;;;;;18.87;58.64;96441.50;10487486;28;20301;-32
2023/06/01 19:01:18;;;;;;;1.35;1.25;;;;;;;18.86;58.43;96440.69;10494340;28;20667;-32
2023/06/01 19:06:19;;;;;;;0.97;0.90;;;;;;;18.85;58.29;96444.03;10491556;28;20483;-32
2023/06/01 19:11:19;;;;;;;1.38;1.08;;;;;;;18.84;57.97;96446.59;10492609;28;20310;-33
2023/06/01 19:16:26;;;;;;;1.20;1.10;;;;;;;18.83;58.10;96444.94;10494367;28;20040;-32
2023/06/01 19:21:30;;;;;;;1.60;1.27;;;;;;;18.80;58.04;96450.00;10490580;28;20029;-32
2023/06/01 19:26:32;;;;;;;1.17;0.95;;;;;;;18.98;59.26;96454.94;10494070;28;20063;-32
2023/06/01 19:31:38;;;;;;;0.77;0.68;;;;;;;19.15;58.30;96455.69;10486972;28;20032;-32
2023/06/01 19:36:41;;;;;;;0.80;0.80;;;;;;;19.09;58.73;96469.25;10490558;28;20530;-33
2023/06/01 19:41:42;;;;;;;1.00;0.90;;;;;;;18.96;58.80;96466.81;10485983;28;20044;-33
2023/06/01 19:46:42;;;;;;;0.88;0.88;;;;;;;18.92;58.63;96472.78;10492740;28;20033;-33
2023/06/01 19:51:42;;;;;;;1.00;0.90;;;;;;;18.88;58.23;96471.09;10493002;28;20036;-31
2023/06/01 19:56:47;;;;;;;1.20;1.00;;;;;;;18.87;58.33;96471.94;10491724;28;20090;-32
2023/06/01 20:01:48;;;;;;;0.95;0.75;;;;;;;18.85;58.07;96474.47;10492659;28;20479;-32
2023/06/01 20:06:50;;;;;;;1.10;1.00;;;;;;;18.84;58.08;96482.94;10487370;28;20047;-32
2023/06/01 20:11:52;;;;;;;1.15;1.05;;;;;;;18.83;58.08;96480.44;10485951;28;20037;-32
2023/06/01 20:16:54;;;;;;;0.88;0.88;;;;;;;18.83;57.90;96485.50;10492372;28;20039;-33
2023/06/01 20:21:57;;;;;;;0.90;0.80;;;;;;;18.83;58.18;96490.59;10489018;28;20033;-34
2023/06/01 20:27:00;;;;;;;1.42;0.80;;;;;;;19.02;58.83;96492.97;10500134;28;20110;-33
2023/06/01 20:32:01;;;;;;;0.85;0.85;;;;;;;19.17;58.11;96489.53;10483900;28;20029;-33
2023/06/01 20:37:04;;;;;;;0.85;0.85;;;;;;;19.04;58.58;96487.91;10487838;28;20096;-33
2023/06/01 20:42:06;;;;;;;1.02;0.95;;;;;;;18.94;58.52;96488.81;10491400;28;20414;-32
2023/06/01 20:47:07;;;;;;;0.82;0.73;;;;;;;18.90;58.63;96495.59;10491193;28;20056;-32
2023/06/01 20:52:08;;;;;;;0.87;0.80;;;;;;;18.88;58.42;96493.91;10487639;28;20025;-32
2023/06/01 20:57:08;;;;;;;1.20;1.08;;;;;;;18.87;58.36;96487.16;10486610;28;20032;-32
2023/06/01 21:02:09;;;;;;;0.80;0.80;;;;;;;18.85;58.08;96499.00;10483703;28;20032;-32
2023/06/01 21:07:09;;;;;;;0.90;0.77;;;;;;;18.84;58.08;96500.69;10490889;28;20039;-33
2023/06/01 21:12:10;;;;;;;0.90;0.77;;;;;;;18.83;57.76;96504.09;10487038;28;20021;-32
2023/06/01 21:17:10;;;;;;;1.23;1.13;;;;;;;18.80;58.13;96495.66;10490672;28;20060;-32
2023/06/01 21:22:10;;;;;;;0.83;0.83;;;;;;;18.86;60.01;96501.56;10486475;28;20401;-32
2023/06/01 21:27:11;;;;;;;0.80;0.80;;;;;;;19.06;58.96;96496.34;10501407;28;20028;-32
2023/06/01 21:32:12;;;;;;;1.20;1.10;;;;;;;19.18;58.11;96499.66;10499732;28;20086;-32
2023/06/01 21:37:12;;;;;;;0.60;0.50;;;;;;;19.03;58.63;96501.44;10497314;28;20060;-32
2023/06/01 21:42:12;;;;;;;1.10;1.00;;;;;;;18.94;58.68;96499.81;10506646;28;20043;-33
2023/06/01 21:47:15;;;;;;;1.20;1.10;;;;;;;18.89;58.40;96491.38;10491824;28;20062;-32
2023/06/01 21:52:15;;;;;;;1.00;0.90;;;;;;;18.87;58.29;96484.63;10496753;28;20051;-32
2023/06/01 21:57:16;;;;;;;1.03;0.90;;;;;;;18.86;58.08;96488.88;10497927;28;20039;-32
2023/06/01 22:02:16;;;;;;;2.23;0.80;;;;;;;18.84;58.02;96490.56;10494075;28;20294;-33
2023/06/01 22:07:17;;;;;;;0.70;0.70;;;;;;;18.84;57.88;96492.25;10492020;28;20285;-33
2023/06/01 22:12:17;;;;;;;1.03;0.90;;;;;;;18.84;57.90;96488.00;10501657;28;20029;-32
2023/06/01 22:17:18;;;;;;;0.80;0.80;;;;;;;18.84;57.83;96494.78;10501311;28;20640;-32
2023/06/01 22:22:18;;;;;;;0.80;0.80;;;;;;;18.88;60.08;96494.78;10492304;28;20041;-32
2023/06/01 22:27:19;;;;;;;1.00;0.90;;;;;;;19.11;58.88;96498.03;10505014;28;20032;-32
2023/06/01 22:32:19;;;;;;;0.90;0.90;;;;;;;19.17;57.94;96497.16;10494650;28;20065;-32
2023/06/01 22:37:21;;;;;;;0.75;0.75;;;;;;;19.01;58.60;96493.84;10492652;28;20029;-32
2023/06/01 22:42:22;;;;;;;1.13;0.80;;;;;;;18.93;58.41;96492.22;10495978;28;20067;-32
2023/06/01 22:47:22;;;;;;;1.20;1.10;;;;;;;18.87;58.31;96487.16;10492579;28;20035;-33
2023/06/01 22:52:27;;;;;;;1.00;0.90;;;;;;;18.88;58.08;96493.91;10495464;28;20033;-32
2023/06/01 22:57:27;;;;;;;1.05;0.80;;;;;;;18.87;57.84;96492.22;10487690;28;20387;-32
2023/06/01 23:02:27;;;;;;;0.80;0.80;;;;;;;18.81;57.75;96488.03;10494520;28;20045;-33
2023/06/01 23:07:28;;;;;;;0.70;0.70;;;;;;;18.86;57.76;96500.69;10495005;28;20178;-32
2023/06/01 23:12:29;;;;;;;1.20;1.10;;;;;;;18.84;57.32;96497.34;10494073;28;20040;-32
2023/06/01 23:17:32;;;;;;;1.10;1.00;;;;;;;18.84;57.79;96502.41;10494649;28;20079;-33
2023/06/01 23:22:36;;;;;;;0.80;0.80;;;;;;;18.96;58.98;96492.19;10490651;28;20381;-33